sensor_id;sensor_type;location;lat;lon;timestamp;pressure;altitude;pressure_sealevel;temperature;humidity
76060;BME280;64759;52.220;5.170;2023-04-28T00:01:14;101373.81;;;9.92;53.20
76060;BME280;64759;52.220;5.170;2023-04-28T00:03:40;101377.38;;;9.80;53.85
76060;BME280;64759;52.220;5.170;2023-04-28T00:06:06;101375.81;;;9.88;53.47
76060;BME280;64759;52.220;5.170;2023-04-28T00:08:32;101357.59;;;9.90;53.32
76060;BME280;64759;52.220;5.170;2023-04-28T00:10:57;101350.13;;;9.76;53.40
76060;BME280;64759;52.220;5.170;2023-04-28T00:13:23;101346.81;;;9.85;53.30
76060;BME280;64759;52.220;5.170;2023-04-28T00:15:49;101344.22;;;9.85;53.27
76060;BME280;64759;52.220;5.170;2023-04-28T00:18:14;101335.88;;;9.81;53.43
76060;BME280;64759;52.220;5.170;2023-04-28T00:20:40;101334.56;;;9.87;53.13
76060;BME280;64759;52.220;5.170;2023-04-28T00:23:05;101331.03;;;9.88;53.41
76060;BME280;64759;52.220;5.170;2023-04-28T00:25:31;101332.22;;;9.84;53.75
76060;BME280;64759;52.220;5.170;2023-04-28T00:27:57;101323.53;;;9.85;53.35
76060;BME280;64759;52.220;5.170;2023-04-28T00:30:23;101311.22;;;9.77;53.50
76060;BME280;64759;52.220;5.170;2023-04-28T00:32:49;101322.63;;;9.75;53.34
76060;BME280;64759;52.220;5.170;2023-04-28T00:35:14;101311.84;;;9.70;53.74
76060;BME280;64759;52.220;5.170;2023-04-28T00:37:40;101318.59;;;9.82;53.38
76060;BME280;64759;52.220;5.170;2023-04-28T00:40:07;101316.00;;;9.82;53.57
76060;BME280;64759;52.220;5.170;2023-04-28T00:42:33;101320.97;;;9.74;53.39
76060;BME280;64759;52.220;5.170;2023-04-28T00:44:58;101319.28;;;9.84;52.92
76060;BME280;64759;52.220;5.170;2023-04-28T00:47:33;101313.63;;;9.90;52.74
76060;BME280;64759;52.220;5.170;2023-04-28T00:50:03;101311.41;;;9.85;52.66
76060;BME280;64759;52.220;5.170;2023-04-28T00:52:33;101313.06;;;9.86;52.96
76060;BME280;64759;52.220;5.170;2023-04-28T00:54:58;101291.28;;;9.89;52.08
76060;BME280;64759;52.220;5.170;2023-04-28T00:57:24;101301.31;;;9.82;52.64
76060;BME280;64759;52.220;5.170;2023-04-28T00:59:49;101294.50;;;9.81;52.76
76060;BME280;64759;52.220;5.170;2023-04-28T01:02:15;101291.47;;;9.76;53.42
76060;BME280;64759;52.220;5.170;2023-04-28T01:04:46;101282.78;;;9.77;53.70
76060;BME280;64759;52.220;5.170;2023-04-28T01:07:13;101272.88;;;9.82;53.88
76060;BME280;64759;52.220;5.170;2023-04-28T01:09:39;101278.53;;;9.76;53.75
76060;BME280;64759;52.220;5.170;2023-04-28T01:12:07;101277.00;;;9.74;54.15
76060;BME280;64759;52.220;5.170;2023-04-28T01:14:42;101281.13;;;9.76;53.98
76060;BME280;64759;52.220;5.170;2023-04-28T01:17:09;101282.44;;;9.71;53.73
76060;BME280;64759;52.220;5.170;2023-04-28T01:19:35;101277.38;;;9.69;54.22
76060;BME280;64759;52.220;5.170;2023-04-28T01:22:01;101281.63;;;9.70;53.94
76060;BME280;64759;52.220;5.170;2023-04-28T01:24:29;101276.88;;;9.75;53.79
76060;BME280;64759;52.220;5.170;2023-04-28T01:27:00;101273.97;;;9.69;53.88
76060;BME280;64759;52.220;5.170;2023-04-28T01:29:26;101273.41;;;9.65;54.24
76060;BME280;64759;52.220;5.170;2023-04-28T01:31:52;101268.81;;;9.69;53.76
76060;BME280;64759;52.220;5.170;2023-04-28T01:34:17;101260.66;;;9.73;53.69
76060;BME280;64759;52.220;5.170;2023-04-28T01:36:43;101252.91;;;9.73;53.45
76060;BME280;64759;52.220;5.170;2023-04-28T01:39:09;101251.16;;;9.74;53.52
76060;BME280;64759;52.220;5.170;2023-04-28T01:41:35;101244.09;;;9.76;53.46
76060;BME280;64759;52.220;5.170;2023-04-28T01:44:02;101242.75;;;9.61;54.04
76060;BME280;64759;52.220;5.170;2023-04-28T01:46:29;101241.31;;;9.68;53.88
76060;BME280;64759;52.220;5.170;2023-04-28T01:48:57;101231.59;;;9.60;53.94
76060;BME280;64759;52.220;5.170;2023-04-28T01:51:23;101237.09;;;9.67;53.41
76060;BME280;64759;52.220;5.170;2023-04-28T01:53:49;101229.09;;;9.70;53.79
76060;BME280;64759;52.220;5.170;2023-04-28T01:56:14;101232.75;;;9.67;53.58
76060;BME280;64759;52.220;5.170;2023-04-28T01:58:40;101223.03;;;9.60;54.00
76060;BME280;64759;52.220;5.170;2023-04-28T02:01:06;101229.81;;;9.61;53.69
76060;BME280;64759;52.220;5.170;2023-04-28T02:03:31;101231.03;;;9.57;54.40
76060;BME280;64759;52.220;5.170;2023-04-28T02:05:57;101227.50;;;9.58;53.89
76060;BME280;64759;52.220;5.170;2023-04-28T02:08:23;101220.69;;;9.57;54.09
76060;BME280;64759;52.220;5.170;2023-04-28T02:10:50;101220.75;;;9.46;54.52
76060;BME280;64759;52.220;5.170;2023-04-28T02:13:15;101218.28;;;9.44;55.07
76060;BME280;64759;52.220;5.170;2023-04-28T02:15:42;101213.09;;;9.44;54.99
76060;BME280;64759;52.220;5.170;2023-04-28T02:18:08;101216.75;;;9.42;55.20
76060;BME280;64759;52.220;5.170;2023-04-28T02:20:38;101199.63;;;9.41;55.31
76060;BME280;64759;52.220;5.170;2023-04-28T02:23:03;101203.38;;;9.37;55.50
76060;BME280;64759;52.220;5.170;2023-04-28T02:25:32;101199.56;;;9.31;55.69
76060;BME280;64759;52.220;5.170;2023-04-28T02:27:59;101199.63;;;9.41;55.61
76060;BME280;64759;52.220;5.170;2023-04-28T02:30:25;101202.13;;;9.31;55.74
76060;BME280;64759;52.220;5.170;2023-04-28T02:32:50;101201.03;;;9.34;55.69
76060;BME280;64759;52.220;5.170;2023-04-28T02:35:16;101196.13;;;9.31;55.53
76060;BME280;64759;52.220;5.170;2023-04-28T02:37:42;101196.81;;;9.33;55.67
76060;BME280;64759;52.220;5.170;2023-04-28T02:40:09;101195.09;;;9.22;56.47
76060;BME280;64759;52.220;5.170;2023-04-28T02:42:35;101190.31;;;9.17;56.35
76060;BME280;64759;52.220;5.170;2023-04-28T02:45:00;101179.13;;;9.28;55.96
76060;BME280;64759;52.220;5.170;2023-04-28T02:47:26;101179.97;;;9.17;56.47
76060;BME280;64759;52.220;5.170;2023-04-28T02:49:51;101184.22;;;9.07;56.77
76060;BME280;64759;52.220;5.170;2023-04-28T02:52:17;101175.50;;;9.19;56.34
76060;BME280;64759;52.220;5.170;2023-04-28T02:54:42;101178.38;;;9.05;56.81
76060;BME280;64759;52.220;5.170;2023-04-28T02:57:08;101170.84;;;9.13;56.84
76060;BME280;64759;52.220;5.170;2023-04-28T02:59:34;101158.16;;;9.10;56.97
76060;BME280;64759;52.220;5.170;2023-04-28T03:02:00;101145.19;;;9.21;56.64
76060;BME280;64759;52.220;5.170;2023-04-28T03:04:26;101147.81;;;9.10;57.58
76060;BME280;64759;52.220;5.170;2023-04-28T03:06:52;101141.22;;;9.17;57.65
76060;BME280;64759;52.220;5.170;2023-04-28T03:09:17;101134.91;;;9.10;57.74
76060;BME280;64759;52.220;5.170;2023-04-28T03:11:43;101147.75;;;9.01;57.88
76060;BME280;64759;52.220;5.170;2023-04-28T03:14:08;101141.91;;;8.99;58.04
76060;BME280;64759;52.220;5.170;2023-04-28T03:16:34;101148.44;;;9.03;58.21
76060;BME280;64759;52.220;5.170;2023-04-28T03:18:59;101135.03;;;9.09;57.56
76060;BME280;64759;52.220;5.170;2023-04-28T03:21:25;101126.09;;;9.13;57.35
76060;BME280;64759;52.220;5.170;2023-04-28T03:23:52;101118.38;;;9.02;57.88
76060;BME280;64759;52.220;5.170;2023-04-28T03:26:18;101116.25;;;9.07;57.94
76060;BME280;64759;52.220;5.170;2023-04-28T03:28:44;101106.50;;;9.10;57.63
76060;BME280;64759;52.220;5.170;2023-04-28T03:31:10;101097.59;;;9.03;58.21
76060;BME280;64759;52.220;5.170;2023-04-28T03:33:36;101104.91;;;8.98;58.36
76060;BME280;64759;52.220;5.170;2023-04-28T03:36:01;101091.22;;;8.87;58.65
76060;BME280;64759;52.220;5.170;2023-04-28T03:38:27;101096.03;;;8.91;58.50
76060;BME280;64759;52.220;5.170;2023-04-28T03:40:54;101098.09;;;8.97;58.36
76060;BME280;64759;52.220;5.170;2023-04-28T03:43:31;101090.09;;;9.00;58.51
76060;BME280;64759;52.220;5.170;2023-04-28T03:46:11;101082.16;;;8.92;58.75
76060;BME280;64759;52.220;5.170;2023-04-28T03:48:36;101073.84;;;8.89;58.83
76060;BME280;64759;52.220;5.170;2023-04-28T03:51:02;101082.53;;;8.88;59.08
76060;BME280;64759;52.220;5.170;2023-04-28T03:53:27;101084.03;;;8.90;59.26
76060;BME280;64759;52.220;5.170;2023-04-28T03:55:56;101078.94;;;8.79;59.73
76060;BME280;64759;52.220;5.170;2023-04-28T03:58:22;101077.59;;;8.85;59.56
76060;BME280;64759;52.220;5.170;2023-04-28T04:00:50;101072.78;;;8.91;59.28
76060;BME280;64759;52.220;5.170;2023-04-28T04:03:15;101070.19;;;8.91;59.36
76060;BME280;64759;52.220;5.170;2023-04-28T04:05:42;101071.13;;;8.90;59.14
76060;BME280;64759;52.220;5.170;2023-04-28T04:08:09;101065.84;;;8.92;59.07
76060;BME280;64759;52.220;5.170;2023-04-28T04:10:35;101063.06;;;8.84;59.16
76060;BME280;64759;52.220;5.170;2023-04-28T04:13:01;101070.06;;;8.93;58.60
76060;BME280;64759;52.220;5.170;2023-04-28T04:15:26;101064.50;;;8.97;58.62
76060;BME280;64759;52.220;5.170;2023-04-28T04:17:52;101058.53;;;8.97;58.37
76060;BME280;64759;52.220;5.170;2023-04-28T04:20:20;101051.75;;;8.96;58.27
76060;BME280;64759;52.220;5.170;2023-04-28T04:22:45;101056.38;;;9.02;58.18
76060;BME280;64759;52.220;5.170;2023-04-28T04:25:11;101059.59;;;8.94;57.92
76060;BME280;64759;52.220;5.170;2023-04-28T04:27:37;101055.59;;;9.01;58.17
76060;BME280;64759;52.220;5.170;2023-04-28T04:30:04;101053.31;;;9.08;57.86
76060;BME280;64759;52.220;5.170;2023-04-28T04:32:30;101051.47;;;9.19;57.46
76060;BME280;64759;52.220;5.170;2023-04-28T04:34:55;101054.63;;;9.23;57.36
76060;BME280;64759;52.220;5.170;2023-04-28T04:37:21;101051.00;;;9.26;56.73
76060;BME280;64759;52.220;5.170;2023-04-28T04:39:55;101051.69;;;9.28;56.75
76060;BME280;64759;52.220;5.170;2023-04-28T04:42:21;101044.06;;;9.26;56.93
76060;BME280;64759;52.220;5.170;2023-04-28T04:44:52;101042.78;;;9.20;56.62
76060;BME280;64759;52.220;5.170;2023-04-28T04:47:25;101039.00;;;9.25;56.93
76060;BME280;64759;52.220;5.170;2023-04-28T04:49:51;101024.97;;;9.17;56.65
76060;BME280;64759;52.220;5.170;2023-04-28T04:52:18;101031.69;;;9.30;57.01
76060;BME280;64759;52.220;5.170;2023-04-28T04:54:44;101028.84;;;9.33;56.62
76060;BME280;64759;52.220;5.170;2023-04-28T04:57:11;101028.47;;;9.37;56.87
76060;BME280;64759;52.220;5.170;2023-04-28T05:00:01;101023.69;;;9.33;56.56
76060;BME280;64759;52.220;5.170;2023-04-28T05:02:27;101029.16;;;9.39;56.57
76060;BME280;64759;52.220;5.170;2023-04-28T05:04:53;101029.16;;;9.39;56.55
76060;BME280;64759;52.220;5.170;2023-04-28T05:07:20;101022.84;;;9.32;56.89
76060;BME280;64759;52.220;5.170;2023-04-28T05:09:46;101022.47;;;9.37;56.80
76060;BME280;64759;52.220;5.170;2023-04-28T05:12:12;101023.88;;;9.41;57.03
76060;BME280;64759;52.220;5.170;2023-04-28T05:14:37;101023.09;;;9.50;56.77
76060;BME280;64759;52.220;5.170;2023-04-28T05:17:03;101025.03;;;9.57;56.48
76060;BME280;64759;52.220;5.170;2023-04-28T05:19:35;101025.72;;;9.59;56.40
76060;BME280;64759;52.220;5.170;2023-04-28T05:22:01;101038.03;;;9.46;56.91
76060;BME280;64759;52.220;5.170;2023-04-28T05:24:27;101040.34;;;9.49;56.88
76060;BME280;64759;52.220;5.170;2023-04-28T05:26:52;101047.19;;;9.50;57.12
76060;BME280;64759;52.220;5.170;2023-04-28T05:29:20;101049.06;;;9.48;60.54
76060;BME280;64759;52.220;5.170;2023-04-28T05:31:46;101047.47;;;9.57;61.53
76060;BME280;64759;52.220;5.170;2023-04-28T05:34:11;101055.88;;;9.49;64.30
76060;BME280;64759;52.220;5.170;2023-04-28T05:36:37;101055.13;;;9.38;66.48
76060;BME280;64759;52.220;5.170;2023-04-28T05:39:06;101040.25;;;9.09;69.04
76060;BME280;64759;52.220;5.170;2023-04-28T05:41:34;101027.16;;;8.81;71.80
76060;BME280;64759;52.220;5.170;2023-04-28T05:44:00;101023.03;;;8.57;73.58
76060;BME280;64759;52.220;5.170;2023-04-28T05:46:25;101031.84;;;8.55;75.06
76060;BME280;64759;52.220;5.170;2023-04-28T05:48:51;101030.59;;;8.49;76.23
76060;BME280;64759;52.220;5.170;2023-04-28T05:51:19;101022.84;;;8.49;75.56
76060;BME280;64759;52.220;5.170;2023-04-28T05:53:46;101016.25;;;8.45;75.68
76060;BME280;64759;52.220;5.170;2023-04-28T05:56:15;101008.72;;;8.33;75.48
76060;BME280;64759;52.220;5.170;2023-04-28T05:58:42;100994.28;;;8.19;75.50
76060;BME280;64759;52.220;5.170;2023-04-28T06:01:12;100996.88;;;8.19;76.51
76060;BME280;64759;52.220;5.170;2023-04-28T06:03:38;100978.03;;;8.08;75.80
76060;BME280;64759;52.220;5.170;2023-04-28T06:06:06;100969.22;;;8.10;77.27
76060;BME280;64759;52.220;5.170;2023-04-28T06:08:33;100966.50;;;8.12;76.43
76060;BME280;64759;52.220;5.170;2023-04-28T06:11:03;100964.63;;;8.14;75.94
76060;BME280;64759;52.220;5.170;2023-04-28T06:13:29;100971.88;;;8.20;75.82
76060;BME280;64759;52.220;5.170;2023-04-28T06:15:55;100967.19;;;8.25;75.94
76060;BME280;64759;52.220;5.170;2023-04-28T06:18:22;100977.38;;;8.37;76.36
76060;BME280;64759;52.220;5.170;2023-04-28T06:20:49;100976.03;;;8.43;75.14
76060;BME280;64759;52.220;5.170;2023-04-28T06:23:14;100981.56;;;8.49;75.12
76060;BME280;64759;52.220;5.170;2023-04-28T06:25:43;100981.72;;;8.57;73.92
76060;BME280;64759;52.220;5.170;2023-04-28T06:28:09;100981.94;;;8.66;74.93
76060;BME280;64759;52.220;5.170;2023-04-28T06:30:36;100995.09;;;8.83;75.13
76060;BME280;64759;52.220;5.170;2023-04-28T06:33:02;101005.50;;;8.93;75.02
76060;BME280;64759;52.220;5.170;2023-04-28T06:35:27;101004.03;;;9.00;74.97
76060;BME280;64759;52.220;5.170;2023-04-28T06:37:53;101001.03;;;9.15;74.51
76060;BME280;64759;52.220;5.170;2023-04-28T06:40:19;101003.06;;;9.21;74.35
76060;BME280;64759;52.220;5.170;2023-04-28T06:42:51;101004.78;;;9.32;74.18
76060;BME280;64759;52.220;5.170;2023-04-28T06:45:22;101008.38;;;9.41;74.28
76060;BME280;64759;52.220;5.170;2023-04-28T06:47:48;100997.88;;;9.42;73.81
76060;BME280;64759;52.220;5.170;2023-04-28T06:50:13;100987.59;;;9.52;74.26
76060;BME280;64759;52.220;5.170;2023-04-28T06:52:39;100981.09;;;9.57;74.41
76060;BME280;64759;52.220;5.170;2023-04-28T06:55:08;100981.94;;;9.67;74.27
76060;BME280;64759;52.220;5.170;2023-04-28T06:57:35;100972.81;;;9.73;73.86
76060;BME280;64759;52.220;5.170;2023-04-28T07:00:02;100990.81;;;9.84;74.04
76060;BME280;64759;52.220;5.170;2023-04-28T07:02:28;100987.97;;;9.87;73.56
76060;BME280;64759;52.220;5.170;2023-04-28T07:04:54;100984.72;;;9.95;74.00
76060;BME280;64759;52.220;5.170;2023-04-28T07:07:19;100985.94;;;10.00;74.23
76060;BME280;64759;52.220;5.170;2023-04-28T07:09:47;100986.91;;;9.99;74.61
76060;BME280;64759;52.220;5.170;2023-04-28T07:12:12;100991.69;;;10.04;74.41
76060;BME280;64759;52.220;5.170;2023-04-28T07:14:37;100987.75;;;10.09;74.54
76060;BME280;64759;52.220;5.170;2023-04-28T07:17:06;100983.56;;;10.18;74.97
76060;BME280;64759;52.220;5.170;2023-04-28T07:19:32;100984.13;;;10.21;75.04
76060;BME280;64759;52.220;5.170;2023-04-28T07:21:58;100983.81;;;10.15;75.03
76060;BME280;64759;52.220;5.170;2023-04-28T07:24:23;100979.88;;;10.30;75.35
76060;BME280;64759;52.220;5.170;2023-04-28T07:26:49;100983.56;;;10.37;75.01
76060;BME280;64759;52.220;5.170;2023-04-28T07:29:15;100985.09;;;10.49;75.41
76060;BME280;64759;52.220;5.170;2023-04-28T07:31:41;100973.63;;;10.32;75.71
76060;BME280;64759;52.220;5.170;2023-04-28T07:34:06;100974.19;;;10.36;75.63
76060;BME280;64759;52.220;5.170;2023-04-28T07:36:31;100961.78;;;10.39;75.59
76060;BME280;64759;52.220;5.170;2023-04-28T07:38:59;100971.75;;;10.44;76.60
76060;BME280;64759;52.220;5.170;2023-04-28T07:41:25;100976.25;;;10.52;76.30
76060;BME280;64759;52.220;5.170;2023-04-28T07:43:50;100972.41;;;10.56;76.47
76060;BME280;64759;52.220;5.170;2023-04-28T07:46:16;100972.81;;;10.61;76.67
76060;BME280;64759;52.220;5.170;2023-04-28T07:48:41;100970.75;;;10.64;76.15
76060;BME280;64759;52.220;5.170;2023-04-28T07:51:08;100959.19;;;10.68;76.07
76060;BME280;64759;52.220;5.170;2023-04-28T07:53:33;100963.94;;;10.82;76.56
76060;BME280;64759;52.220;5.170;2023-04-28T07:56:00;100965.81;;;10.90;75.97
76060;BME280;64759;52.220;5.170;2023-04-28T07:58:26;100966.34;;;11.03;75.89
76060;BME280;64759;52.220;5.170;2023-04-28T08:00:51;100966.16;;;11.14;76.25
76060;BME280;64759;52.220;5.170;2023-04-28T08:03:17;100967.91;;;11.23;75.87
76060;BME280;64759;52.220;5.170;2023-04-28T08:05:42;100957.75;;;11.39;75.69
76060;BME280;64759;52.220;5.170;2023-04-28T08:08:09;100963.47;;;11.43;75.46
76060;BME280;64759;52.220;5.170;2023-04-28T08:10:35;100955.16;;;11.39;75.26
76060;BME280;64759;52.220;5.170;2023-04-28T08:13:00;100958.44;;;11.41;75.20
76060;BME280;64759;52.220;5.170;2023-04-28T08:15:27;100956.09;;;11.38;75.04
76060;BME280;64759;52.220;5.170;2023-04-28T08:17:53;100959.75;;;11.45;75.42
76060;BME280;64759;52.220;5.170;2023-04-28T08:20:18;100957.44;;;11.52;75.32
76060;BME280;64759;52.220;5.170;2023-04-28T08:22:45;100971.59;;;11.30;75.68
76060;BME280;64759;52.220;5.170;2023-04-28T08:25:11;100968.84;;;11.32;75.73
76060;BME280;64759;52.220;5.170;2023-04-28T08:27:36;100965.66;;;11.38;75.65
76060;BME280;64759;52.220;5.170;2023-04-28T08:30:06;100977.25;;;11.43;75.80
76060;BME280;64759;52.220;5.170;2023-04-28T08:32:31;100967.13;;;11.50;76.33
76060;BME280;64759;52.220;5.170;2023-04-28T08:34:57;100972.56;;;11.56;76.51
76060;BME280;64759;52.220;5.170;2023-04-28T08:37:22;100970.25;;;11.53;77.52
76060;BME280;64759;52.220;5.170;2023-04-28T08:39:49;100967.09;;;11.59;77.74
76060;BME280;64759;52.220;5.170;2023-04-28T08:42:15;100967.41;;;11.47;78.33
76060;BME280;64759;52.220;5.170;2023-04-28T08:44:40;100969.34;;;11.45;78.58
76060;BME280;64759;52.220;5.170;2023-04-28T08:47:13;100969.31;;;11.18;79.97
76060;BME280;64759;52.220;5.170;2023-04-28T08:49:40;100967.63;;;11.26;80.41
76060;BME280;64759;52.220;5.170;2023-04-28T08:52:11;100960.16;;;11.50;79.93
76060;BME280;64759;52.220;5.170;2023-04-28T08:54:38;100962.56;;;11.34;80.73
76060;BME280;64759;52.220;5.170;2023-04-28T08:57:07;100964.34;;;11.24;81.97
76060;BME280;64759;52.220;5.170;2023-04-28T08:59:33;100957.22;;;11.36;81.67
76060;BME280;64759;52.220;5.170;2023-04-28T09:01:59;100954.16;;;11.23;82.92
76060;BME280;64759;52.220;5.170;2023-04-28T09:04:24;100948.50;;;11.37;82.85
76060;BME280;64759;52.220;5.170;2023-04-28T09:06:50;100956.78;;;11.40;83.33
76060;BME280;64759;52.220;5.170;2023-04-28T09:09:19;100947.78;;;11.44;82.97
76060;BME280;64759;52.220;5.170;2023-04-28T09:11:59;100949.72;;;11.60;83.06
76060;BME280;64759;52.220;5.170;2023-04-28T09:14:28;100946.19;;;11.61;83.29
76060;BME280;64759;52.220;5.170;2023-04-28T09:16:54;100945.97;;;11.82;82.91
76060;BME280;64759;52.220;5.170;2023-04-28T09:19:21;100950.13;;;11.92;82.72
76060;BME280;64759;52.220;5.170;2023-04-28T09:21:55;100960.50;;;11.92;83.34
76060;BME280;64759;52.220;5.170;2023-04-28T09:26:50;100948.94;;;11.87;84.69
76060;BME280;64759;52.220;5.170;2023-04-28T09:29:16;100950.56;;;11.88;85.12
76060;BME280;64759;52.220;5.170;2023-04-28T09:31:42;100949.06;;;11.85;85.60
76060;BME280;64759;52.220;5.170;2023-04-28T09:34:09;100939.19;;;11.71;86.33
76060;BME280;64759;52.220;5.170;2023-04-28T09:36:36;100945.88;;;11.73;87.14
76060;BME280;64759;52.220;5.170;2023-04-28T09:39:02;100938.91;;;11.92;86.93
76060;BME280;64759;52.220;5.170;2023-04-28T09:41:39;100944.72;;;12.03;86.58
76060;BME280;64759;52.220;5.170;2023-04-28T09:44:15;100937.16;;;11.92;86.97
76060;BME280;64759;52.220;5.170;2023-04-28T09:46:45;100934.09;;;11.97;87.94
76060;BME280;64759;52.220;5.170;2023-04-28T09:49:11;100940.72;;;12.26;87.00
76060;BME280;64759;52.220;5.170;2023-04-28T09:51:37;100937.63;;;12.40;86.53
76060;BME280;64759;52.220;5.170;2023-04-28T09:54:03;100939.75;;;12.27;86.65
76060;BME280;64759;52.220;5.170;2023-04-28T09:56:31;100939.09;;;12.25;87.21
76060;BME280;64759;52.220;5.170;2023-04-28T09:58:58;100937.25;;;12.18;87.92
76060;BME280;64759;52.220;5.170;2023-04-28T10:01:25;100946.44;;;12.30;87.84
76060;BME280;64759;52.220;5.170;2023-04-28T10:03:52;100933.81;;;12.17;88.21
76060;BME280;64759;52.220;5.170;2023-04-28T10:06:19;100932.94;;;12.26;87.96
76060;BME280;64759;52.220;5.170;2023-04-28T10:08:44;100933.56;;;12.46;87.52
76060;BME280;64759;52.220;5.170;2023-04-28T10:11:13;100931.13;;;12.62;86.87
76060;BME280;64759;52.220;5.170;2023-04-28T10:13:41;100938.44;;;12.67;86.90
76060;BME280;64759;52.220;5.170;2023-04-28T10:16:07;100931.78;;;12.64;86.81
76060;BME280;64759;52.220;5.170;2023-04-28T10:18:36;100936.16;;;12.64;86.57
76060;BME280;64759;52.220;5.170;2023-04-28T10:21:02;100933.81;;;12.78;86.24
76060;BME280;64759;52.220;5.170;2023-04-28T10:29:16;100933.94;;;12.94;86.24
76060;BME280;64759;52.220;5.170;2023-04-28T10:34:38;100927.91;;;12.94;86.49
76060;BME280;64759;52.220;5.170;2023-04-28T10:37:06;100932.47;;;12.92;86.19
76060;BME280;64759;52.220;5.170;2023-04-28T10:39:31;100934.88;;;12.93;86.18
76060;BME280;64759;52.220;5.170;2023-04-28T10:41:57;100935.06;;;12.92;86.57
76060;BME280;64759;52.220;5.170;2023-04-28T10:46:59;100930.31;;;12.87;86.42
76060;BME280;64759;52.220;5.170;2023-04-28T10:55:25;100934.53;;;12.88;87.04
76060;BME280;64759;52.220;5.170;2023-04-28T11:00:40;100935.53;;;13.13;87.15
76060;BME280;64759;52.220;5.170;2023-04-28T11:03:05;100932.75;;;13.15;86.86
76060;BME280;64759;52.220;5.170;2023-04-28T11:05:31;100924.81;;;13.16;87.36
76060;BME280;64759;52.220;5.170;2023-04-28T11:13:47;100923.91;;;13.33;87.40
76060;BME280;64759;52.220;5.170;2023-04-28T11:16:14;100918.56;;;13.35;87.55
76060;BME280;64759;52.220;5.170;2023-04-28T11:18:59;100924.41;;;13.37;87.32
76060;BME280;64759;52.220;5.170;2023-04-28T11:21:29;100909.16;;;13.42;87.28
76060;BME280;64759;52.220;5.170;2023-04-28T11:23:56;100906.09;;;13.46;87.58
76060;BME280;64759;52.220;5.170;2023-04-28T11:26:22;100910.66;;;13.52;87.78
76060;BME280;64759;52.220;5.170;2023-04-28T11:28:52;100904.97;;;13.49;88.47
76060;BME280;64759;52.220;5.170;2023-04-28T11:31:18;100917.03;;;13.58;88.20
76060;BME280;64759;52.220;5.170;2023-04-28T11:33:56;100917.50;;;13.61;87.83
76060;BME280;64759;52.220;5.170;2023-04-28T11:38:56;100914.09;;;13.61;87.67
76060;BME280;64759;52.220;5.170;2023-04-28T11:41:22;100915.06;;;13.60;88.12
76060;BME280;64759;52.220;5.170;2023-04-28T11:43:47;100922.41;;;13.64;87.99
76060;BME280;64759;52.220;5.170;2023-04-28T11:46:17;100926.78;;;13.64;87.88
76060;BME280;64759;52.220;5.170;2023-04-28T11:48:44;100921.22;;;13.59;88.19
76060;BME280;64759;52.220;5.170;2023-04-28T11:51:10;100922.25;;;13.66;87.90
76060;BME280;64759;52.220;5.170;2023-04-28T11:53:50;100925.34;;;13.69;88.16
76060;BME280;64759;52.220;5.170;2023-04-28T11:56:16;100920.44;;;13.66;88.19
76060;BME280;64759;52.220;5.170;2023-04-28T11:58:41;100924.66;;;13.59;88.43
76060;BME280;64759;52.220;5.170;2023-04-28T12:01:07;100930.50;;;13.61;88.17
76060;BME280;64759;52.220;5.170;2023-04-28T12:03:44;100921.91;;;13.61;88.12
76060;BME280;64759;52.220;5.170;2023-04-28T12:06:10;100936.84;;;13.59;87.88
76060;BME280;64759;52.220;5.170;2023-04-28T12:08:35;100928.56;;;13.55;88.24
76060;BME280;64759;52.220;5.170;2023-04-28T12:11:09;100929.06;;;13.67;87.57
76060;BME280;64759;52.220;5.170;2023-04-28T12:13:36;100934.75;;;13.62;87.98
76060;BME280;64759;52.220;5.170;2023-04-28T12:16:03;100937.84;;;13.58;87.69
76060;BME280;64759;52.220;5.170;2023-04-28T12:18:31;100939.31;;;13.60;87.32
76060;BME280;64759;52.220;5.170;2023-04-28T12:20:57;100936.06;;;13.66;87.11
76060;BME280;64759;52.220;5.170;2023-04-28T12:23:33;100939.81;;;13.72;87.20
76060;BME280;64759;52.220;5.170;2023-04-28T12:25:59;100940.75;;;13.55;88.09
76060;BME280;64759;52.220;5.170;2023-04-28T12:28:38;100940.59;;;13.64;88.03
76060;BME280;64759;52.220;5.170;2023-04-28T12:31:07;100946.59;;;13.57;88.85
76060;BME280;64759;52.220;5.170;2023-04-28T12:33:34;100942.94;;;13.75;87.67
76060;BME280;64759;52.220;5.170;2023-04-28T12:36:04;100944.41;;;13.78;87.27
76060;BME280;64759;52.220;5.170;2023-04-28T12:38:49;100942.72;;;13.69;87.63
76060;BME280;64759;52.220;5.170;2023-04-28T12:41:15;100952.19;;;13.70;87.89
76060;BME280;64759;52.220;5.170;2023-04-28T12:43:40;100936.06;;;13.66;87.74
76060;BME280;64759;52.220;5.170;2023-04-28T12:46:08;100943.72;;;13.68;87.86
76060;BME280;64759;52.220;5.170;2023-04-28T12:48:35;100950.53;;;13.69;88.19
76060;BME280;64759;52.220;5.170;2023-04-28T12:51:01;100954.47;;;13.81;87.24
76060;BME280;64759;52.220;5.170;2023-04-28T12:53:26;100946.31;;;13.76;87.54
76060;BME280;64759;52.220;5.170;2023-04-28T12:55:52;100948.44;;;13.72;87.38
76060;BME280;64759;52.220;5.170;2023-04-28T12:58:18;100937.88;;;13.74;87.33
76060;BME280;64759;52.220;5.170;2023-04-28T13:00:44;100941.97;;;13.85;87.32
76060;BME280;64759;52.220;5.170;2023-04-28T13:03:09;100948.28;;;13.74;87.32
76060;BME280;64759;52.220;5.170;2023-04-28T13:05:35;100950.91;;;13.82;87.08
76060;BME280;64759;52.220;5.170;2023-04-28T13:08:02;100951.22;;;13.79;87.15
76060;BME280;64759;52.220;5.170;2023-04-28T13:10:29;100953.81;;;13.79;86.77
76060;BME280;64759;52.220;5.170;2023-04-28T13:12:54;100958.03;;;13.72;87.69
76060;BME280;64759;52.220;5.170;2023-04-28T13:15:20;100957.38;;;13.70;87.65
76060;BME280;64759;52.220;5.170;2023-04-28T13:17:47;100960.81;;;13.70;87.88
76060;BME280;64759;52.220;5.170;2023-04-28T13:20:12;100963.31;;;13.88;87.41
76060;BME280;64759;52.220;5.170;2023-04-28T13:22:38;100959.03;;;13.79;87.62
76060;BME280;64759;52.220;5.170;2023-04-28T13:25:04;100965.38;;;13.76;87.77